sensor_id;sensor_type;location;lat;lon;timestamp;P1;durP1;ratioP1;P2;durP2;ratioP2
59093;SDS011;44880;52.814;18.270;2022-12-07T00:02:08;14.70;;;7.40;;
59093;SDS011;44880;52.814;18.270;2022-12-07T00:04:40;15.30;;;7.50;;
59093;SDS011;44880;52.814;18.270;2022-12-07T00:07:12;15.90;;;8.00;;
59093;SDS011;44880;52.814;18.270;2022-12-07T00:09:44;16.00;;;8.00;;
59093;SDS011;44880;52.814;18.270;2022-12-07T00:12:17;17.10;;;9.00;;
59093;SDS011;44880;52.814;18.270;2022-12-07T00:14:49;16.20;;;8.90;;
59093;SDS011;44880;52.814;18.270;2022-12-07T00:19:51;14.20;;;7.70;;
59093;SDS011;44880;52.814;18.270;2022-12-07T00:22:23;16.60;;;8.10;;
59093;SDS011;44880;52.814;18.270;2022-12-07T00:24:55;16.00;;;8.20;;
59093;SDS011;44880;52.814;18.270;2022-12-07T00:27:34;16.50;;;7.70;;
59093;SDS011;44880;52.814;18.270;2022-12-07T00:30:15;16.60;;;7.20;;
59093;SDS011;44880;52.814;18.270;2022-12-07T00:32:47;14.50;;;7.30;;
59093;SDS011;44880;52.814;18.270;2022-12-07T00:35:18;14.70;;;7.40;;
59093;SDS011;44880;52.814;18.270;2022-12-07T00:37:50;16.20;;;8.30;;
59093;SDS011;44880;52.814;18.270;2022-12-07T00:40:22;17.70;;;9.20;;
59093;SDS011;44880;52.814;18.270;2022-12-07T00:42:54;16.40;;;8.30;;
59093;SDS011;44880;52.814;18.270;2022-12-07T00:45:25;18.90;;;8.70;;
59093;SDS011;44880;52.814;18.270;2022-12-07T00:47:57;16.60;;;7.90;;
59093;SDS011;44880;52.814;18.270;2022-12-07T00:50:29;17.10;;;7.80;;
59093;SDS011;44880;52.814;18.270;2022-12-07T00:53:00;16.40;;;7.90;;
59093;SDS011;44880;52.814;18.270;2022-12-07T00:55:34;13.80;;;7.00;;
59093;SDS011;44880;52.814;18.270;2022-12-07T00:58:05;15.90;;;7.70;;
59093;SDS011;44880;52.814;18.270;2022-12-07T01:00:38;14.80;;;7.80;;
59093;SDS011;44880;52.814;18.270;2022-12-07T01:03:11;15.20;;;6.90;;
59093;SDS011;44880;52.814;18.270;2022-12-07T01:05:50;16.30;;;8.40;;
59093;SDS011;44880;52.814;18.270;2022-12-07T01:08:23;16.70;;;8.50;;
59093;SDS011;44880;52.814;18.270;2022-12-07T01:10:59;16.60;;;8.50;;
59093;SDS011;44880;52.814;18.270;2022-12-07T01:13:33;15.00;;;7.00;;
59093;SDS011;44880;52.814;18.270;2022-12-07T01:16:05;14.70;;;6.60;;
59093;SDS011;44880;52.814;18.270;2022-12-07T01:18:38;12.10;;;5.40;;
59093;SDS011;44880;52.814;18.270;2022-12-07T01:21:11;14.00;;;6.20;;
59093;SDS011;44880;52.814;18.270;2022-12-07T01:23:44;18.10;;;8.70;;
59093;SDS011;44880;52.814;18.270;2022-12-07T01:26:18;15.50;;;8.40;;
59093;SDS011;44880;52.814;18.270;2022-12-07T01:28:52;16.90;;;7.60;;
59093;SDS011;44880;52.814;18.270;2022-12-07T01:31:24;17.30;;;7.70;;
59093;SDS011;44880;52.814;18.270;2022-12-07T01:33:56;16.10;;;7.60;;
59093;SDS011;44880;52.814;18.270;2022-12-07T01:36:29;17.00;;;8.10;;
59093;SDS011;44880;52.814;18.270;2022-12-07T01:39:04;17.50;;;9.40;;
59093;SDS011;44880;52.814;18.270;2022-12-07T01:41:37;15.80;;;8.20;;
59093;SDS011;44880;52.814;18.270;2022-12-07T01:44:16;15.00;;;7.80;;
59093;SDS011;44880;52.814;18.270;2022-12-07T01:46:52;14.50;;;6.80;;
59093;SDS011;44880;52.814;18.270;2022-12-07T01:49:28;13.80;;;6.60;;
59093;SDS011;44880;52.814;18.270;2022-12-07T01:52:03;14.90;;;7.60;;
59093;SDS011;44880;52.814;18.270;2022-12-07T01:54:40;15.30;;;7.00;;
59093;SDS011;44880;52.814;18.270;2022-12-07T01:57:13;14.90;;;7.20;;
59093;SDS011;44880;52.814;18.270;2022-12-07T01:59:48;14.50;;;7.80;;
59093;SDS011;44880;52.814;18.270;2022-12-07T02:02:22;13.70;;;7.30;;
59093;SDS011;44880;52.814;18.270;2022-12-07T02:04:56;15.30;;;8.00;;
59093;SDS011;44880;52.814;18.270;2022-12-07T02:07:29;13.90;;;7.10;;
59093;SDS011;44880;52.814;18.270;2022-12-07T02:10:13;17.20;;;7.50;;
59093;SDS011;44880;52.814;18.270;2022-12-07T02:12:46;14.30;;;7.60;;
59093;SDS011;44880;52.814;18.270;2022-12-07T02:15:19;16.40;;;7.00;;
59093;SDS011;44880;52.814;18.270;2022-12-07T02:17:54;14.40;;;7.10;;
59093;SDS011;44880;52.814;18.270;2022-12-07T02:20:30;13.50;;;6.30;;
59093;SDS011;44880;52.814;18.270;2022-12-07T02:26:17;13.30;;;6.20;;
59093;SDS011;44880;52.814;18.270;2022-12-07T02:29:06;12.10;;;5.90;;
59093;SDS011;44880;52.814;18.270;2022-12-07T02:31:46;11.90;;;5.30;;
59093;SDS011;44880;52.814;18.270;2022-12-07T02:34:25;12.00;;;5.20;;
59093;SDS011;44880;52.814;18.270;2022-12-07T02:37:03;10.70;;;5.20;;
59093;SDS011;44880;52.814;18.270;2022-12-07T02:39:41;10.30;;;4.60;;
59093;SDS011;44880;52.814;18.270;2022-12-07T02:42:17;12.30;;;6.30;;
59093;SDS011;44880;52.814;18.270;2022-12-07T02:44:51;14.20;;;6.40;;
59093;SDS011;44880;52.814;18.270;2022-12-07T02:49:53;15.20;;;7.50;;
59093;SDS011;44880;52.814;18.270;2022-12-07T02:52:25;16.10;;;8.00;;
59093;SDS011;44880;52.814;18.270;2022-12-07T02:54:57;16.10;;;7.40;;
59093;SDS011;44880;52.814;18.270;2022-12-07T03:00:21;17.40;;;7.60;;
59093;SDS011;44880;52.814;18.270;2022-12-07T03:02:55;18.80;;;8.20;;
59093;SDS011;44880;52.814;18.270;2022-12-07T03:05:36;16.70;;;8.10;;
59093;SDS011;44880;52.814;18.270;2022-12-07T03:08:25;17.70;;;8.20;;
59093;SDS011;44880;52.814;18.270;2022-12-07T03:11:02;17.50;;;8.30;;
59093;SDS011;44880;52.814;18.270;2022-12-07T03:13:37;17.30;;;7.10;;
59093;SDS011;44880;52.814;18.270;2022-12-07T03:16:12;18.70;;;7.70;;
59093;SDS011;44880;52.814;18.270;2022-12-07T03:18:46;17.70;;;7.60;;
59093;SDS011;44880;52.814;18.270;2022-12-07T03:21:21;17.50;;;7.90;;
59093;SDS011;44880;52.814;18.270;2022-12-07T03:23:56;17.80;;;7.70;;
59093;SDS011;44880;52.814;18.270;2022-12-07T03:26:31;16.30;;;7.50;;
59093;SDS011;44880;52.814;18.270;2022-12-07T03:29:04;17.60;;;7.60;;
59093;SDS011;44880;52.814;18.270;2022-12-07T03:31:39;16.00;;;6.70;;
59093;SDS011;44880;52.814;18.270;2022-12-07T03:34:14;15.90;;;7.20;;
59093;SDS011;44880;52.814;18.270;2022-12-07T03:36:48;16.20;;;6.90;;
59093;SDS011;44880;52.814;18.270;2022-12-07T03:39:24;16.80;;;7.90;;
59093;SDS011;44880;52.814;18.270;2022-12-07T03:41:57;15.70;;;7.30;;
59093;SDS011;44880;52.814;18.270;2022-12-07T03:44:31;17.30;;;7.40;;
59093;SDS011;44880;52.814;18.270;2022-12-07T03:47:04;16.00;;;7.30;;
59093;SDS011;44880;52.814;18.270;2022-12-07T03:49:40;14.10;;;6.30;;
59093;SDS011;44880;52.814;18.270;2022-12-07T03:52:16;17.10;;;8.20;;
59093;SDS011;44880;52.814;18.270;2022-12-07T03:54:53;14.00;;;6.00;;
59093;SDS011;44880;52.814;18.270;2022-12-07T03:57:28;14.30;;;6.30;;
59093;SDS011;44880;52.814;18.270;2022-12-07T04:00:03;14.00;;;6.10;;
59093;SDS011;44880;52.814;18.270;2022-12-07T04:02:41;13.70;;;5.90;;
59093;SDS011;44880;52.814;18.270;2022-12-07T04:05:13;15.80;;;7.30;;
59093;SDS011;44880;52.814;18.270;2022-12-07T04:07:44;14.40;;;6.10;;
59093;SDS011;44880;52.814;18.270;2022-12-07T04:10:16;13.90;;;5.50;;
59093;SDS011;44880;52.814;18.270;2022-12-07T04:12:48;14.30;;;7.10;;
59093;SDS011;44880;52.814;18.270;2022-12-07T04:15:20;15.40;;;5.80;;
59093;SDS011;44880;52.814;18.270;2022-12-07T04:17:52;13.10;;;5.80;;
59093;SDS011;44880;52.814;18.270;2022-12-07T04:22:54;13.40;;;6.10;;
59093;SDS011;44880;52.814;18.270;2022-12-07T04:25:25;13.00;;;5.70;;
59093;SDS011;44880;52.814;18.270;2022-12-07T04:27:57;14.30;;;6.30;;
59093;SDS011;44880;52.814;18.270;2022-12-07T04:30:29;13.80;;;6.10;;
59093;SDS011;44880;52.814;18.270;2022-12-07T04:33:01;13.10;;;6.30;;
59093;SDS011;44880;52.814;18.270;2022-12-07T04:35:33;13.50;;;5.80;;
59093;SDS011;44880;52.814;18.270;2022-12-07T04:38:05;12.00;;;5.20;;
59093;SDS011;44880;52.814;18.270;2022-12-07T04:40:37;12.50;;;5.30;;
59093;SDS011;44880;52.814;18.270;2022-12-07T04:43:08;11.30;;;5.00;;
59093;SDS011;44880;52.814;18.270;2022-12-07T04:45:40;11.20;;;5.20;;
59093;SDS011;44880;52.814;18.270;2022-12-07T04:48:17;10.80;;;4.60;;
59093;SDS011;44880;52.814;18.270;2022-12-07T04:50:49;12.10;;;5.00;;
59093;SDS011;44880;52.814;18.270;2022-12-07T04:53:20;10.70;;;4.60;;
59093;SDS011;44880;52.814;18.270;2022-12-07T04:55:52;12.50;;;4.90;;
59093;SDS011;44880;52.814;18.270;2022-12-07T04:58:24;12.80;;;5.40;;
59093;SDS011;44880;52.814;18.270;2022-12-07T05:00:56;13.30;;;5.30;;
59093;SDS011;44880;52.814;18.270;2022-12-07T05:03:27;12.00;;;5.00;;
59093;SDS011;44880;52.814;18.270;2022-12-07T05:05:59;12.50;;;5.10;;
59093;SDS011;44880;52.814;18.270;2022-12-07T05:08:31;12.60;;;4.60;;
59093;SDS011;44880;52.814;18.270;2022-12-07T05:11:03;14.90;;;5.70;;
59093;SDS011;44880;52.814;18.270;2022-12-07T05:13:36;14.60;;;6.20;;
59093;SDS011;44880;52.814;18.270;2022-12-07T05:16:08;18.30;;;7.50;;
59093;SDS011;44880;52.814;18.270;2022-12-07T05:18:39;15.60;;;7.40;;
59093;SDS011;44880;52.814;18.270;2022-12-07T05:21:11;18.90;;;8.40;;
59093;SDS011;44880;52.814;18.270;2022-12-07T05:23:43;16.90;;;7.10;;
59093;SDS011;44880;52.814;18.270;2022-12-07T05:26:14;17.60;;;7.00;;
59093;SDS011;44880;52.814;18.270;2022-12-07T05:28:49;19.90;;;8.10;;
59093;SDS011;44880;52.814;18.270;2022-12-07T05:31:22;19.90;;;8.00;;
59093;SDS011;44880;52.814;18.270;2022-12-07T05:33:54;20.40;;;8.00;;
59093;SDS011;44880;52.814;18.270;2022-12-07T05:36:26;18.60;;;7.20;;
59093;SDS011;44880;52.814;18.270;2022-12-07T05:38:59;19.10;;;6.60;;
59093;SDS011;44880;52.814;18.270;2022-12-07T05:44:18;21.60;;;8.00;;
59093;SDS011;44880;52.814;18.270;2022-12-07T05:46:50;24.10;;;8.40;;
59093;SDS011;44880;52.814;18.270;2022-12-07T05:49:21;20.80;;;8.30;;
59093;SDS011;44880;52.814;18.270;2022-12-07T05:51:53;19.10;;;8.00;;
59093;SDS011;44880;52.814;18.270;2022-12-07T05:54:25;21.10;;;8.10;;
59093;SDS011;44880;52.814;18.270;2022-12-07T05:59:26;21.80;;;8.00;;
59093;SDS011;44880;52.814;18.270;2022-12-07T06:01:58;21.70;;;8.20;;
59093;SDS011;44880;52.814;18.270;2022-12-07T06:04:35;24.90;;;9.40;;
59093;SDS011;44880;52.814;18.270;2022-12-07T06:07:08;22.00;;;8.80;;
59093;SDS011;44880;52.814;18.270;2022-12-07T06:09:40;23.00;;;8.70;;
59093;SDS011;44880;52.814;18.270;2022-12-07T06:12:12;23.70;;;8.60;;
59093;SDS011;44880;52.814;18.270;2022-12-07T06:15:02;24.80;;;8.10;;
59093;SDS011;44880;52.814;18.270;2022-12-07T06:17:35;25.10;;;9.50;;
59093;SDS011;44880;52.814;18.270;2022-12-07T06:20:08;26.90;;;10.50;;
59093;SDS011;44880;52.814;18.270;2022-12-07T06:22:40;25.60;;;9.40;;
59093;SDS011;44880;52.814;18.270;2022-12-07T06:25:12;26.20;;;9.50;;
59093;SDS011;44880;52.814;18.270;2022-12-07T06:27:44;25.60;;;11.20;;
59093;SDS011;44880;52.814;18.270;2022-12-07T06:32:46;26.40;;;11.60;;
59093;SDS011;44880;52.814;18.270;2022-12-07T06:35:18;25.80;;;11.10;;
59093;SDS011;44880;52.814;18.270;2022-12-07T06:37:50;28.10;;;10.00;;
59093;SDS011;44880;52.814;18.270;2022-12-07T06:40:22;22.90;;;10.20;;
59093;SDS011;44880;52.814;18.270;2022-12-07T06:42:53;23.50;;;9.60;;
59093;SDS011;44880;52.814;18.270;2022-12-07T06:45:25;19.60;;;8.20;;
59093;SDS011;44880;52.814;18.270;2022-12-07T06:47:57;19.20;;;7.50;;
59093;SDS011;44880;52.814;18.270;2022-12-07T06:50:29;26.00;;;10.40;;
59093;SDS011;44880;52.814;18.270;2022-12-07T06:53:00;20.20;;;8.70;;
59093;SDS011;44880;52.814;18.270;2022-12-07T06:55:32;22.90;;;9.90;;
59093;SDS011;44880;52.814;18.270;2022-12-07T06:58:04;21.60;;;9.30;;
59093;SDS011;44880;52.814;18.270;2022-12-07T07:00:36;21.70;;;9.90;;
59093;SDS011;44880;52.814;18.270;2022-12-07T07:03:08;22.00;;;9.50;;
59093;SDS011;44880;52.814;18.270;2022-12-07T07:08:10;20.20;;;9.20;;
59093;SDS011;44880;52.814;18.270;2022-12-07T07:10:43;20.10;;;9.60;;
59093;SDS011;44880;52.814;18.270;2022-12-07T07:13:15;21.90;;;9.70;;
59093;SDS011;44880;52.814;18.270;2022-12-07T07:15:47;24.90;;;11.00;;
59093;SDS011;44880;52.814;18.270;2022-12-07T07:18:19;23.10;;;11.20;;
59093;SDS011;44880;52.814;18.270;2022-12-07T07:20:51;23.00;;;11.30;;
59093;SDS011;44880;52.814;18.270;2022-12-07T07:23:24;22.40;;;10.80;;
59093;SDS011;44880;52.814;18.270;2022-12-07T07:25:55;21.10;;;10.10;;
59093;SDS011;44880;52.814;18.270;2022-12-07T07:28:27;18.60;;;9.10;;
59093;SDS011;44880;52.814;18.270;2022-12-07T07:30:59;19.00;;;9.80;;
59093;SDS011;44880;52.814;18.270;2022-12-07T07:33:31;20.80;;;10.20;;
59093;SDS011;44880;52.814;18.270;2022-12-07T07:36:03;21.10;;;10.10;;
59093;SDS011;44880;52.814;18.270;2022-12-07T07:38:36;19.20;;;9.00;;
59093;SDS011;44880;52.814;18.270;2022-12-07T07:41:08;18.90;;;9.30;;
59093;SDS011;44880;52.814;18.270;2022-12-07T07:43:39;18.10;;;9.50;;
59093;SDS011;44880;52.814;18.270;2022-12-07T07:46:11;17.90;;;8.90;;
59093;SDS011;44880;52.814;18.270;2022-12-07T07:48:43;17.90;;;9.10;;
59093;SDS011;44880;52.814;18.270;2022-12-07T07:51:15;20.00;;;9.20;;
59093;SDS011;44880;52.814;18.270;2022-12-07T07:53:47;20.40;;;9.50;;
59093;SDS011;44880;52.814;18.270;2022-12-07T07:58:51;18.40;;;9.10;;
59093;SDS011;44880;52.814;18.270;2022-12-07T08:01:23;18.80;;;8.80;;
59093;SDS011;44880;52.814;18.270;2022-12-07T08:03:54;18.20;;;8.10;;
59093;SDS011;44880;52.814;18.270;2022-12-07T08:06:26;17.60;;;8.80;;
59093;SDS011;44880;52.814;18.270;2022-12-07T08:11:29;16.90;;;8.10;;
59093;SDS011;44880;52.814;18.270;2022-12-07T08:14:01;15.70;;;8.30;;
59093;SDS011;44880;52.814;18.270;2022-12-07T08:16:33;16.60;;;8.20;;
59093;SDS011;44880;52.814;18.270;2022-12-07T08:19:05;17.60;;;9.10;;
59093;SDS011;44880;52.814;18.270;2022-12-07T08:21:40;19.00;;;8.60;;
59093;SDS011;44880;52.814;18.270;2022-12-07T08:24:12;18.30;;;8.60;;
59093;SDS011;44880;52.814;18.270;2022-12-07T08:26:44;17.50;;;8.60;;
59093;SDS011;44880;52.814;18.270;2022-12-07T08:29:16;16.80;;;8.30;;
59093;SDS011;44880;52.814;18.270;2022-12-07T08:31:49;15.10;;;8.00;;
59093;SDS011;44880;52.814;18.270;2022-12-07T08:34:20;15.20;;;8.00;;
59093;SDS011;44880;52.814;18.270;2022-12-07T08:36:52;15.10;;;7.70;;
59093;SDS011;44880;52.814;18.270;2022-12-07T08:39:24;16.90;;;7.40;;
59093;SDS011;44880;52.814;18.270;2022-12-07T08:41:56;16.40;;;7.80;;
59093;SDS011;44880;52.814;18.270;2022-12-07T08:44:28;15.00;;;8.00;;
59093;SDS011;44880;52.814;18.270;2022-12-07T08:47:01;16.50;;;9.00;;
59093;SDS011;44880;52.814;18.270;2022-12-07T08:49:34;14.40;;;7.40;;
59093;SDS011;44880;52.814;18.270;2022-12-07T08:52:08;17.80;;;9.60;;
59093;SDS011;44880;52.814;18.270;2022-12-07T08:54:40;17.30;;;8.30;;
59093;SDS011;44880;52.814;18.270;2022-12-07T08:57:12;16.60;;;8.90;;
59093;SDS011;44880;52.814;18.270;2022-12-07T08:59:44;18.30;;;9.80;;
59093;SDS011;44880;52.814;18.270;2022-12-07T09:02:16;16.30;;;8.80;;
59093;SDS011;44880;52.814;18.270;2022-12-07T09:04:48;16.50;;;8.60;;
59093;SDS011;44880;52.814;18.270;2022-12-07T09:07:20;17.10;;;9.30;;
59093;SDS011;44880;52.814;18.270;2022-12-07T09:09:52;15.80;;;8.60;;
59093;SDS011;44880;52.814;18.270;2022-12-07T09:12:24;18.50;;;9.80;;
59093;SDS011;44880;52.814;18.270;2022-12-07T09:14:56;18.00;;;8.80;;
59093;SDS011;44880;52.814;18.270;2022-12-07T09:17:31;14.50;;;8.00;;
59093;SDS011;44880;52.814;18.270;2022-12-07T09:20:04;17.30;;;8.40;;
59093;SDS011;44880;52.814;18.270;2022-12-07T09:22:37;22.20;;;10.70;;
59093;SDS011;44880;52.814;18.270;2022-12-07T09:25:09;18.10;;;9.90;;
59093;SDS011;44880;52.814;18.270;2022-12-07T09:27:41;17.00;;;9.30;;
59093;SDS011;44880;52.814;18.270;2022-12-07T09:30:13;16.00;;;8.00;;
59093;SDS011;44880;52.814;18.270;2022-12-07T09:32:45;16.30;;;8.10;;
59093;SDS011;44880;52.814;18.270;2022-12-07T09:35:17;15.10;;;8.10;;
59093;SDS011;44880;52.814;18.270;2022-12-07T09:37:49;14.80;;;6.80;;
59093;SDS011;44880;52.814;18.270;2022-12-07T09:40:21;14.30;;;8.10;;
59093;SDS011;44880;52.814;18.270;2022-12-07T09:42:54;14.40;;;7.30;;
59093;SDS011;44880;52.814;18.270;2022-12-07T09:45:27;14.70;;;7.30;;
59093;SDS011;44880;52.814;18.270;2022-12-07T09:48:04;14.30;;;7.40;;
59093;SDS011;44880;52.814;18.270;2022-12-07T09:50:39;16.30;;;7.40;;
59093;SDS011;44880;52.814;18.270;2022-12-07T09:55:44;13.60;;;6.60;;
59093;SDS011;44880;52.814;18.270;2022-12-07T09:58:19;15.30;;;7.10;;
59093;SDS011;44880;52.814;18.270;2022-12-07T10:00:55;15.50;;;7.50;;
59093;SDS011;44880;52.814;18.270;2022-12-07T10:03:29;15.20;;;7.90;;
59093;SDS011;44880;52.814;18.270;2022-12-07T10:08:32;23.40;;;11.10;;
59093;SDS011;44880;52.814;18.270;2022-12-07T10:11:04;17.10;;;9.00;;
59093;SDS011;44880;52.814;18.270;2022-12-07T10:13:39;21.90;;;9.30;;
59093;SDS011;44880;52.814;18.270;2022-12-07T10:16:27;18.70;;;9.00;;
59093;SDS011;44880;52.814;18.270;2022-12-07T10:22:03;16.50;;;7.60;;
59093;SDS011;44880;52.814;18.270;2022-12-07T10:24:47;18.70;;;9.90;;
59093;SDS011;44880;52.814;18.270;2022-12-07T10:27:20;22.30;;;11.30;;
59093;SDS011;44880;52.814;18.270;2022-12-07T10:30:01;25.00;;;12.60;;
59093;SDS011;44880;52.814;18.270;2022-12-07T10:32:42;20.70;;;9.90;;
59093;SDS011;44880;52.814;18.270;2022-12-07T10:35:22;14.60;;;7.80;;
59093;SDS011;44880;52.814;18.270;2022-12-07T10:37:56;22.00;;;11.00;;
59093;SDS011;44880;52.814;18.270;2022-12-07T10:40:31;20.10;;;11.00;;
59093;SDS011;44880;52.814;18.270;2022-12-07T10:43:17;19.10;;;9.20;;
59093;SDS011;44880;52.814;18.270;2022-12-07T10:46:01;15.80;;;8.30;;
59093;SDS011;44880;52.814;18.270;2022-12-07T10:49:02;17.40;;;8.50;;
59093;SDS011;44880;52.814;18.270;2022-12-07T10:51:38;14.20;;;7.80;;
59093;SDS011;44880;52.814;18.270;2022-12-07T10:54:17;13.80;;;7.20;;
59093;SDS011;44880;52.814;18.270;2022-12-07T10:56:58;14.00;;;6.60;;
59093;SDS011;44880;52.814;18.270;2022-12-07T10:59:52;14.40;;;7.30;;
59093;SDS011;44880;52.814;18.270;2022-12-07T11:02:48;14.30;;;7.10;;
59093;SDS011;44880;52.814;18.270;2022-12-07T11:05:27;14.30;;;7.40;;
59093;SDS011;44880;52.814;18.270;2022-12-07T11:08:05;13.30;;;6.80;;
59093;SDS011;44880;52.814;18.270;2022-12-07T11:10:49;15.00;;;8.20;;
59093;SDS011;44880;52.814;18.270;2022-12-07T11:13:27;15.30;;;8.30;;
59093;SDS011;44880;52.814;18.270;2022-12-07T11:16:04;14.80;;;7.20;;
59093;SDS011;44880;52.814;18.270;2022-12-07T11:18:43;31.40;;;17.50;;
59093;SDS011;44880;52.814;18.270;2022-12-07T11:21:23;14.20;;;7.40;;
59093;SDS011;44880;52.814;18.270;2022-12-07T11:24:03;24.60;;;14.60;;
59093;SDS011;44880;52.814;18.270;2022-12-07T11:26:50;25.40;;;14.10;;
59093;SDS011;44880;52.814;18.270;2022-12-07T11:32:17;22.60;;;12.50;;
59093;SDS011;44880;52.814;18.270;2022-12-07T11:34:58;16.80;;;9.30;;
59093;SDS011;44880;52.814;18.270;2022-12-07T11:37:36;17.10;;;9.50;;
59093;SDS011;44880;52.814;18.270;2022-12-07T11:40:15;16.30;;;9.40;;
59093;SDS011;44880;52.814;18.270;2022-12-07T11:42:52;16.40;;;9.10;;
59093;SDS011;44880;52.814;18.270;2022-12-07T11:45:26;17.50;;;9.90;;
59093;SDS011;44880;52.814;18.270;2022-12-07T11:47:59;20.40;;;11.50;;
59093;SDS011;44880;52.814;18.270;2022-12-07T11:50:36;22.00;;;11.20;;
59093;SDS011;44880;52.814;18.270;2022-12-07T11:53:21;21.20;;;10.90;;
59093;SDS011;44880;52.814;18.270;2022-12-07T11:55:56;18.90;;;10.50;;
59093;SDS011;44880;52.814;18.270;2022-12-07T11:58:42;18.60;;;9.90;;
59093;SDS011;44880;52.814;18.270;2022-12-07T12:01:26;21.40;;;11.40;;
59093;SDS011;44880;52.814;18.270;2022-12-07T12:04:12;18.70;;;10.50;;
59093;SDS011;44880;52.814;18.270;2022-12-07T12:07:02;18.90;;;9.90;;
59093;SDS011;44880;52.814;18.270;2022-12-07T12:09:41;20.60;;;10.50;;
59093;SDS011;44880;52.814;18.270;2022-12-07T12:12:23;19.50;;;9.90;;
59093;SDS011;44880;52.814;18.270;2022-12-07T12:15:07;19.70;;;10.50;;
59093;SDS011;44880;52.814;18.270;2022-12-07T12:18:10;19.30;;;10.10;;
59093;SDS011;44880;52.814;18.270;2022-12-07T12:20:48;20.00;;;10.90;;
59093;SDS011;44880;52.814;18.270;2022-12-07T12:23:21;18.40;;;10.30;;
59093;SDS011;44880;52.814;18.270;2022-12-07T12:25:57;18.50;;;9.70;;
59093;SDS011;44880;52.814;18.270;2022-12-07T12:28:32;17.20;;;9.80;;
59093;SDS011;44880;52.814;18.270;2022-12-07T12:31:10;19.70;;;10.60;;
59093;SDS011;44880;52.814;18.270;2022-12-07T12:33:46;19.40;;;9.30;;
59093;SDS011;44880;52.814;18.270;2022-12-07T12:36:42;21.60;;;10.60;;
59093;SDS011;44880;52.814;18.270;2022-12-07T12:39:16;20.10;;;10.10;;
59093;SDS011;44880;52.814;18.270;2022-12-07T12:41:54;20.50;;;10.40;;
59093;SDS011;44880;52.814;18.270;2022-12-07T12:44:43;22.10;;;11.30;;
59093;SDS011;44880;52.814;18.270;2022-12-07T12:47:42;24.50;;;11.10;;
59093;SDS011;44880;52.814;18.270;2022-12-07T12:50:26;22.70;;;12.40;;
59093;SDS011;44880;52.814;18.270;2022-12-07T12:53:20;20.20;;;10.90;;
59093;SDS011;44880;52.814;18.270;2022-12-07T12:56:15;25.20;;;12.30;;
59093;SDS011;44880;52.814;18.270;2022-12-07T13:04:53;28.30;;;15.10;;
59093;SDS011;44880;52.814;18.270;2022-12-07T13:25:29;22.40;;;11.50;;
59093;SDS011;44880;52.814;18.270;2022-12-07T13:28:07;20.00;;;9.40;;
59093;SDS011;44880;52.814;18.270;2022-12-07T13:30:45;22.30;;;14.80;;
59093;SDS011;44880;52.814;18.270;2022-12-07T13:33:19;24.70;;;13.60;;
59093;SDS011;44880;52.814;18.270;2022-12-07T13:35:54;29.90;;;16.10;;
59093;SDS011;44880;52.814;18.270;2022-12-07T13:38:29;26.30;;;14.30;;
59093;SDS011;44880;52.814;18.270;2022-12-07T13:41:10;21.80;;;10.90;;
59093;SDS011;44880;52.814;18.270;2022-12-07T13:43:45;25.50;;;13.20;;
59093;SDS011;44880;52.814;18.270;2022-12-07T13:46:19;22.70;;;12.10;;
59093;SDS011;44880;52.814;18.270;2022-12-07T13:48:55;17.30;;;10.10;;
59093;SDS011;44880;52.814;18.270;2022-12-07T13:51:33;22.10;;;11.80;;
59093;SDS011;44880;52.814;18.270;2022-12-07T13:54:12;33.30;;;17.00;;
59093;SDS011;44880;52.814;18.270;2022-12-07T13:56:46;29.80;;;15.20;;
59093;SDS011;44880;52.814;18.270;2022-12-07T13:59:21;25.40;;;13.10;;
59093;SDS011;44880;52.814;18.270;2022-12-07T14:01:54;26.70;;;13.50;;
59093;SDS011;44880;52.814;18.270;2022-12-07T14:04:29;21.30;;;10.70;;
59093;SDS011;44880;52.814;18.270;2022-12-07T14:07:17;19.90;;;10.90;;
59093;SDS011;44880;52.814;18.270;2022-12-07T14:10:00;20.10;;;11.20;;
59093;SDS011;44880;52.814;18.270;2022-12-07T14:12:35;16.80;;;8.80;;
59093;SDS011;44880;52.814;18.270;2022-12-07T14:15:19;16.50;;;8.50;;
59093;SDS011;44880;52.814;18.270;2022-12-07T14:17:53;16.30;;;8.80;;
59093;SDS011;44880;52.814;18.270;2022-12-07T14:20:33;16.20;;;8.80;;
59093;SDS011;44880;52.814;18.270;2022-12-07T14:23:19;16.70;;;9.10;;
59093;SDS011;44880;52.814;18.270;2022-12-07T14:25:54;16.50;;;9.70;;
59093;SDS011;44880;52.814;18.270;2022-12-07T14:28:37;16.70;;;7.90;;
59093;SDS011;44880;52.814;18.270;2022-12-07T14:31:11;16.80;;;8.30;;
59093;SDS011;44880;52.814;18.270;2022-12-07T14:33:44;13.90;;;8.00;;
59093;SDS011;44880;52.814;18.270;2022-12-07T14:38:46;16.30;;;8.00;;
59093;SDS011;44880;52.814;18.270;2022-12-07T14:41:17;16.90;;;8.30;;
59093;SDS011;44880;52.814;18.270;2022-12-07T14:44:10;19.40;;;10.00;;
59093;SDS011;44880;52.814;18.270;2022-12-07T14:46:42;16.50;;;9.00;;
59093;SDS011;44880;52.814;18.270;2022-12-07T14:49:14;14.70;;;8.00;;
59093;SDS011;44880;52.814;18.270;2022-12-07T14:54:17;16.50;;;8.00;;
59093;SDS011;44880;52.814;18.270;2022-12-07T14:56:50;16.50;;;8.30;;
59093;SDS011;44880;52.814;18.270;2022-12-07T15:01:52;15.10;;;7.20;;
59093;SDS011;44880;52.814;18.270;2022-12-07T15:04:23;14.90;;;6.80;;
59093;SDS011;44880;52.814;18.270;2022-12-07T15:06:56;13.70;;;6.80;;
59093;SDS011;44880;52.814;18.270;2022-12-07T15:09:29;15.30;;;7.60;;
59093;SDS011;44880;52.814;18.270;2022-12-07T15:12:01;16.20;;;7.60;;
59093;SDS011;44880;52.814;18.270;2022-12-07T15:14:33;13.60;;;6.40;;
59093;SDS011;44880;52.814;18.270;2022-12-07T15:17:05;15.80;;;7.20;;
59093;SDS011;44880;52.814;18.270;2022-12-07T15:19:37;14.40;;;7.00;;
59093;SDS011;44880;52.814;18.270;2022-12-07T15:22:10;14.30;;;6.90;;
59093;SDS011;44880;52.814;18.270;2022-12-07T15:24:41;15.50;;;8.40;;
59093;SDS011;44880;52.814;18.270;2022-12-07T15:27:14;15.70;;;7.80;;
59093;SDS011;44880;52.814;18.270;2022-12-07T15:29:46;16.60;;;8.30;;
59093;SDS011;44880;52.814;18.270;2022-12-07T15:32:18;16.60;;;8.20;;
59093;SDS011;44880;52.814;18.270;2022-12-07T15:34:51;17.90;;;8.90;;
59093;SDS011;44880;52.814;18.270;2022-12-07T15:37:22;14.00;;;7.00;;
59093;SDS011;44880;52.814;18.270;2022-12-07T15:39:54;15.30;;;6.70;;
59093;SDS011;44880;52.814;18.270;2022-12-07T15:42:26;13.80;;;6.90;;
59093;SDS011;44880;52.814;18.270;2022-12-07T15:45:00;13.90;;;6.80;;
59093;SDS011;44880;52.814;18.270;2022-12-07T15:47:36;14.90;;;7.30;;
59093;SDS011;44880;52.814;18.270;2022-12-07T15:50:11;14.20;;;7.50;;
59093;SDS011;44880;52.814;18.270;2022-12-07T15:52:47;16.80;;;7.50;;
59093;SDS011;44880;52.814;18.270;2022-12-07T15:55:22;16.50;;;8.20;;
59093;SDS011;44880;52.814;18.270;2022-12-07T15:58:01;17.80;;;8.40;;
59093;SDS011;44880;52.814;18.270;2022-12-07T16:00:37;14.50;;;7.30;;
59093;SDS011;44880;52.814;18.270;2022-12-07T16:03:11;17.10;;;8.50;;
59093;SDS011;44880;52.814;18.270;2022-12-07T16:05:50;11.70;;;8.10;;
59093;SDS011;44880;52.814;18.270;2022-12-07T16:08:24;16.00;;;8.30;;
59093;SDS011;44880;52.814;18.270;2022-12-07T16:10:58;14.20;;;8.20;;
59093;SDS011;44880;52.814;18.270;2022-12-07T16:13:36;17.10;;;8.70;;
59093;SDS011;44880;52.814;18.270;2022-12-07T16:16:12;17.90;;;8.70;;